createdAt,value
2019-05-01T00:00:58.707Z,11.63
2019-05-01T00:03:49.023Z,11.03
2019-05-01T00:06:24.325Z,11.87
2019-05-01T00:08:57.837Z,11.67
2019-05-01T00:11:31.403Z,11.43
2019-05-01T00:14:05.632Z,10.63
2019-05-01T00:16:39.690Z,12.53
2019-05-01T00:19:13.305Z,12.13
2019-05-01T00:21:46.914Z,11.70
2019-05-01T00:24:20.457Z,13.90
2019-05-01T00:26:53.995Z,12.77
2019-05-01T00:29:27.558Z,12.37
2019-05-01T00:32:01.241Z,13.40
2019-05-01T00:34:34.824Z,12.87
2019-05-01T00:37:08.302Z,11.27
2019-05-01T00:39:41.858Z,10.80
2019-05-01T00:42:18.133Z,10.80
2019-05-01T00:44:51.700Z,10.67
2019-05-01T00:47:25.553Z,10.70
2019-05-01T00:49:59.147Z,10.33
2019-05-01T00:52:32.625Z,10.63
2019-05-01T00:55:25.094Z,10.73
2019-05-01T00:58:12.684Z,10.57
2019-05-01T01:00:53.916Z,9.67
2019-05-01T01:03:27.636Z,11.50
2019-05-01T01:06:01.445Z,10.43
2019-05-01T01:08:34.989Z,10.10
2019-05-01T01:11:08.502Z,10.20
2019-05-01T01:13:42.081Z,11.07
2019-05-01T01:16:15.619Z,10.63
2019-05-01T01:18:49.182Z,9.60
2019-05-01T01:21:22.787Z,10.37
2019-05-01T01:23:57.575Z,10.63
2019-05-01T01:26:31.179Z,11.30
2019-05-01T01:29:04.817Z,10.80
2019-05-01T01:31:38.412Z,11.07
2019-05-01T01:34:12.107Z,11.50
2019-05-01T01:36:45.637Z,10.70
2019-05-01T01:39:19.242Z,10.33
2019-05-01T01:41:52.917Z,11.17
2019-05-01T01:44:28.189Z,10.77
2019-05-01T01:47:02.222Z,10.83
2019-05-01T01:49:35.852Z,11.07
2019-05-01T01:52:09.465Z,10.77
2019-05-01T01:54:43.102Z,10.83
2019-05-01T01:57:17.012Z,10.43
2019-05-01T01:59:51.166Z,10.80
2019-05-01T02:02:32.500Z,10.40
2019-05-01T02:05:08.782Z,10.70
2019-05-01T02:07:42.628Z,9.73
2019-05-01T02:10:16.373Z,9.00
2019-05-01T02:12:49.984Z,11.03
2019-05-01T02:15:23.638Z,11.17
2019-05-01T02:17:57.274Z,11.23
2019-05-01T02:20:31.063Z,10.83
2019-05-01T02:23:04.662Z,10.60
2019-05-01T02:25:40.276Z,11.37
2019-05-01T02:28:22.590Z,11.53
2019-05-01T02:31:06.779Z,11.47
2019-05-01T02:33:43.745Z,11.27
2019-05-01T02:36:18.950Z,11.57
2019-05-01T02:38:55.363Z,11.50
2019-05-01T02:41:35.111Z,11.70
2019-05-01T02:44:20.484Z,11.73
2019-05-01T02:46:57.330Z,11.83
2019-05-01T02:49:39.615Z,11.03
2019-05-01T02:52:14.380Z,11.17
2019-05-01T02:54:49.470Z,11.53
2019-05-01T02:57:24.405Z,11.33
2019-05-01T02:59:58.467Z,12.47
2019-05-01T03:02:32.117Z,11.90
2019-05-01T03:05:07.419Z,11.20
2019-05-01T03:07:42.291Z,11.40
2019-05-01T03:10:16.707Z,11.43
2019-05-01T03:12:52.001Z,12.37
2019-05-01T03:15:28.635Z,11.60
2019-05-01T03:18:16.328Z,10.93
2019-05-01T03:20:51.572Z,11.50
2019-05-01T03:23:29.522Z,11.67
2019-05-01T03:26:03.898Z,11.27
2019-05-01T03:28:38.437Z,12.17
2019-05-01T03:31:12.259Z,11.63
2019-05-01T03:33:45.838Z,12.50
2019-05-01T03:36:19.671Z,11.03
2019-05-01T03:38:53.496Z,12.37
2019-05-01T03:41:27.402Z,12.93
2019-05-01T03:44:01.338Z,11.70
2019-05-01T03:46:35.606Z,11.90
2019-05-01T03:49:09.444Z,12.07
2019-05-01T03:51:43.887Z,13.50
2019-05-01T03:54:17.652Z,12.63
2019-05-01T03:56:51.383Z,12.40
2019-05-01T03:59:25.005Z,12.83
2019-05-01T04:02:12.548Z,12.67
2019-05-01T04:04:47.187Z,12.47
2019-05-01T04:07:20.917Z,11.00
2019-05-01T04:09:54.656Z,11.47
2019-05-01T04:12:28.479Z,11.00
2019-05-01T04:15:02.214Z,11.47
2019-05-01T04:17:37.962Z,11.13
2019-05-01T04:20:11.770Z,10.30
2019-05-01T04:22:46.189Z,11.40
2019-05-01T04:25:20.152Z,10.67
2019-05-01T04:27:58.645Z,10.47
2019-05-01T04:30:36.083Z,11.20
2019-05-01T04:33:11.363Z,10.77
2019-05-01T04:35:53.017Z,10.40
2019-05-01T04:38:26.630Z,10.07
2019-05-01T04:41:00.980Z,10.00
2019-05-01T04:43:35.110Z,9.53
2019-05-01T04:46:08.736Z,10.00
2019-05-01T04:48:43.068Z,9.73
2019-05-01T04:51:17.191Z,10.23
2019-05-01T04:53:51.564Z,9.73
2019-05-01T04:56:25.416Z,10.73
2019-05-01T04:58:59.533Z,10.90
2019-05-01T05:01:35.316Z,11.63
2019-05-01T05:04:09.279Z,12.47
2019-05-01T05:06:42.916Z,13.03
2019-05-01T05:09:16.701Z,12.17
2019-05-01T05:11:53.220Z,12.63
2019-05-01T05:14:38.140Z,13.67
2019-05-01T05:17:16.246Z,13.80
2019-05-01T05:19:50.071Z,13.90
2019-05-01T05:22:24.504Z,13.40
2019-05-01T05:24:58.191Z,14.00
2019-05-01T05:27:33.291Z,14.20
2019-05-01T05:30:06.936Z,14.57
2019-05-01T05:32:43.470Z,14.13
2019-05-01T05:35:20.194Z,13.97
2019-05-01T05:37:57.445Z,14.53
2019-05-01T05:40:34.445Z,14.03
2019-05-01T05:43:09.719Z,14.37
2019-05-01T05:45:43.421Z,14.00
2019-05-01T05:48:17.410Z,14.30
2019-05-01T05:50:54.388Z,14.27
2019-05-01T05:53:33.051Z,13.40
2019-05-01T05:56:10.466Z,13.17
2019-05-01T05:58:48.144Z,12.43
2019-05-01T06:01:29.696Z,12.77
2019-05-01T06:04:26.327Z,14.10
2019-05-01T06:07:10.162Z,14.27
2019-05-01T06:10:00.292Z,14.33
2019-05-01T06:12:41.739Z,15.70
2019-05-01T06:15:36.641Z,15.17
2019-05-01T06:18:13.515Z,15.40
2019-05-01T06:20:57.046Z,16.40
2019-05-01T06:23:40.090Z,19.43
2019-05-01T06:26:37.552Z,17.63
2019-05-01T06:29:09.310Z,18.37
2019-05-01T06:31:43.248Z,18.87
2019-05-01T06:34:23.882Z,20.03
2019-05-01T06:36:55.078Z,18.53
2019-05-01T06:39:28.942Z,17.73
2019-05-01T06:42:04.666Z,18.67
2019-05-01T06:44:44.343Z,18.17
2019-05-01T06:47:20.778Z,19.73
2019-05-01T06:50:12.901Z,18.37
2019-05-01T06:52:46.716Z,18.17
2019-05-01T06:55:22.537Z,18.13
2019-05-01T06:57:56.099Z,18.10
2019-05-01T07:00:30.348Z,18.23
2019-05-01T07:03:06.052Z,17.47
2019-05-01T07:05:44.643Z,19.13
2019-05-01T07:08:24.611Z,20.57
2019-05-01T07:11:10.884Z,21.20
2019-05-01T07:13:55.633Z,21.47
2019-05-01T07:16:33.147Z,21.67
2019-05-01T07:19:10.770Z,21.43
2019-05-01T07:21:53.535Z,20.93
2019-05-01T07:27:00.656Z,22.10
2019-05-01T07:32:01.687Z,22.17
2019-05-01T07:34:33.867Z,21.03
2019-05-01T07:37:08.612Z,22.53
2019-05-01T07:39:44.852Z,22.47
2019-05-01T07:42:29.033Z,21.90
2019-05-01T07:45:23.069Z,21.73
2019-05-01T07:48:03.821Z,21.03
2019-05-01T07:50:33.073Z,20.73
2019-05-01T07:53:06.604Z,19.87
2019-05-01T07:55:40.179Z,20.97
2019-05-01T07:58:18.180Z,20.30
2019-05-01T08:00:58.217Z,19.97
2019-05-01T08:03:31.643Z,19.37
2019-05-01T08:06:05.166Z,20.10
2019-05-01T08:08:39.730Z,20.87
2019-05-01T08:11:13.736Z,21.37
2019-05-01T08:13:47.138Z,19.77
2019-05-01T08:16:20.560Z,21.00
2019-05-01T08:19:10.614Z,20.57
2019-05-01T08:21:48.400Z,20.20
2019-05-01T08:24:23.055Z,20.20
2019-05-01T08:26:56.994Z,21.67
2019-05-01T08:29:48.234Z,20.43
2019-05-01T08:32:26.185Z,19.93
2019-05-01T08:35:06.717Z,20.00
2019-05-01T08:37:40.139Z,20.23
2019-05-01T08:40:15.919Z,20.20
2019-05-01T08:42:49.514Z,19.67
2019-05-01T08:45:24.571Z,20.67
2019-05-01T08:48:16.119Z,19.53
2019-05-01T08:50:49.529Z,19.57
2019-05-01T08:53:23.313Z,19.77
2019-05-01T08:55:56.999Z,18.63
2019-05-01T08:58:30.437Z,19.10
2019-05-01T09:01:05.710Z,18.93
2019-05-01T09:03:39.170Z,18.73
2019-05-01T09:06:12.534Z,19.47
2019-05-01T09:08:45.981Z,19.30
2019-05-01T09:11:19.461Z,18.60
2019-05-01T09:13:54.697Z,18.20
2019-05-01T09:16:30.035Z,16.73
2019-05-01T09:19:03.196Z,17.20
2019-05-01T09:21:37.784Z,17.43
2019-05-01T09:24:11.956Z,16.53
2019-05-01T09:26:53.148Z,16.00
2019-05-01T09:29:28.283Z,15.80
2019-05-01T09:32:05.101Z,15.73
2019-05-01T09:34:37.372Z,15.63
2019-05-01T09:37:10.782Z,14.40
2019-05-01T09:39:47.044Z,15.27
2019-05-01T09:42:23.785Z,16.53
2019-05-01T09:44:54.675Z,15.53
2019-05-01T09:47:28.239Z,14.67
2019-05-01T09:50:01.780Z,14.60
2019-05-01T09:52:49.049Z,14.33
2019-05-01T09:55:24.936Z,14.67
2019-05-01T09:57:58.519Z,14.70
2019-05-01T10:00:33.171Z,14.50
2019-05-01T10:03:06.601Z,14.87
2019-05-01T10:05:42.946Z,15.00
2019-05-01T10:08:15.345Z,13.63
2019-05-01T10:10:48.835Z,14.70
2019-05-01T10:13:24.065Z,15.10
2019-05-01T10:15:57.635Z,15.30
2019-05-01T10:18:31.052Z,13.57
2019-05-01T10:21:04.660Z,12.90
2019-05-01T10:23:38.067Z,13.10
2019-05-01T10:26:13.147Z,13.80
2019-05-01T10:28:51.643Z,13.63
2019-05-01T10:31:46.575Z,12.90
2019-05-01T10:34:28.655Z,11.23
2019-05-01T10:37:02.136Z,11.93
2019-05-01T10:39:35.547Z,9.47
2019-05-01T10:42:08.975Z,9.63
2019-05-01T10:44:42.387Z,10.50
2019-05-01T10:47:15.884Z,11.30
2019-05-01T10:49:49.348Z,10.13
2019-05-01T10:52:22.786Z,11.47
2019-05-01T10:54:56.187Z,11.40
2019-05-01T10:57:29.881Z,10.20
2019-05-01T11:00:04.870Z,10.57
2019-05-01T11:02:38.319Z,11.13
2019-05-01T11:05:11.960Z,10.80
2019-05-01T11:07:45.376Z,10.83
2019-05-01T11:10:18.854Z,10.57
2019-05-01T11:12:52.268Z,10.50
2019-05-01T11:15:25.685Z,9.97
2019-05-01T11:17:59.182Z,9.93
2019-05-01T11:20:32.643Z,9.00
2019-05-01T11:23:06.208Z,10.33
2019-05-01T11:25:39.793Z,10.70
2019-05-01T11:28:13.289Z,9.67
2019-05-01T11:30:46.690Z,9.80
2019-05-01T11:33:34.025Z,9.50
2019-05-01T11:36:18.160Z,9.40
2019-05-01T11:38:53.235Z,9.60
2019-05-01T11:41:31.305Z,9.87
2019-05-01T11:44:05.190Z,10.17
2019-05-01T11:46:38.589Z,9.97
2019-05-01T11:49:12.008Z,9.40
2019-05-01T11:51:45.415Z,9.13
2019-05-01T11:54:18.920Z,8.57
2019-05-01T11:56:52.386Z,8.87
2019-05-01T11:59:25.822Z,8.70
2019-05-01T12:02:02.284Z,8.23
2019-05-01T12:04:34.446Z,8.23
2019-05-01T12:07:07.853Z,8.80
2019-05-01T12:09:41.293Z,8.80
2019-05-01T12:12:16.361Z,8.77
2019-05-01T12:14:49.773Z,8.80
2019-05-01T12:17:27.214Z,8.43
2019-05-01T12:20:00.628Z,8.73
2019-05-01T12:22:34.033Z,8.63
2019-05-01T12:25:07.805Z,9.77
2019-05-01T12:27:41.212Z,9.93
2019-05-01T12:30:16.449Z,9.13
2019-05-01T12:32:49.858Z,9.27
2019-05-01T12:35:23.379Z,9.23
2019-05-01T12:37:58.471Z,8.83
2019-05-01T12:40:31.967Z,9.60
2019-05-01T12:43:05.421Z,9.13
2019-05-01T12:45:38.935Z,8.47
2019-05-01T12:48:12.349Z,8.93
2019-05-01T12:50:47.421Z,8.93
2019-05-01T12:53:22.455Z,9.93
2019-05-01T12:56:13.282Z,9.50
2019-05-01T12:58:47.673Z,9.70
2019-05-01T13:01:21.167Z,9.60
2019-05-01T13:03:54.558Z,9.53
2019-05-01T13:06:27.997Z,9.17
2019-05-01T13:09:01.474Z,9.37
2019-05-01T13:11:34.951Z,9.33
2019-05-01T13:14:08.367Z,8.97
2019-05-01T13:16:41.809Z,9.63
2019-05-01T13:19:15.213Z,10.40
2019-05-01T13:21:48.727Z,11.13
2019-05-01T13:24:22.129Z,10.33
2019-05-01T13:27:02.932Z,10.20
2019-05-01T13:29:41.020Z,9.80
2019-05-01T13:32:22.198Z,10.57
2019-05-01T13:34:55.668Z,10.07
2019-05-01T13:37:29.100Z,10.03
2019-05-01T13:40:02.596Z,9.77
2019-05-01T13:42:36.145Z,10.30
2019-05-01T13:45:09.975Z,9.63
2019-05-01T13:47:43.386Z,9.57
2019-05-01T13:50:17.037Z,9.80
2019-05-01T13:52:50.576Z,9.60
2019-05-01T13:55:24.223Z,9.40
2019-05-01T13:57:57.671Z,8.53
2019-05-01T14:00:31.076Z,9.17
2019-05-01T14:03:04.544Z,9.47
2019-05-01T14:05:37.930Z,9.80
2019-05-01T14:08:11.337Z,9.03
2019-05-01T14:10:44.743Z,9.20
2019-05-01T14:13:18.160Z,9.53
2019-05-01T14:15:51.578Z,9.77
2019-05-01T14:18:24.992Z,9.43
2019-05-01T14:21:00.053Z,9.50
2019-05-01T14:23:35.110Z,9.33
2019-05-01T14:26:09.088Z,9.77
2019-05-01T14:28:42.538Z,9.90
2019-05-01T14:31:16.000Z,9.97
2019-05-01T14:33:49.512Z,10.37
2019-05-01T14:36:22.907Z,10.27
2019-05-01T14:38:56.357Z,10.00
2019-05-01T14:41:29.917Z,9.20
2019-05-01T14:44:03.598Z,9.57
2019-05-01T14:46:36.982Z,9.90
2019-05-01T14:49:10.493Z,10.70
2019-05-01T14:51:43.970Z,10.47
2019-05-01T14:54:17.449Z,10.47
2019-05-01T14:56:50.852Z,11.23
2019-05-01T14:59:24.348Z,11.30
2019-05-01T15:01:57.751Z,11.40
2019-05-01T15:04:31.188Z,11.23
2019-05-01T15:07:04.677Z,10.20
2019-05-01T15:09:38.185Z,10.90
2019-05-01T15:12:11.612Z,9.60
2019-05-01T15:14:52.108Z,11.23
2019-05-01T15:17:27.157Z,10.97
2019-05-01T15:20:02.222Z,11.30
2019-05-01T15:22:35.641Z,11.73
2019-05-01T15:25:09.311Z,10.80
2019-05-01T15:27:42.871Z,12.10
2019-05-01T15:30:18.185Z,12.57
2019-05-01T15:32:51.752Z,25.90
2019-05-01T15:35:25.127Z,24.27
2019-05-01T15:37:58.530Z,11.13
2019-05-01T15:40:33.621Z,10.93
2019-05-01T15:43:26.504Z,10.20
2019-05-01T15:45:59.944Z,10.30
2019-05-01T15:48:33.368Z,11.43
2019-05-01T15:51:06.776Z,10.43
2019-05-01T15:53:40.199Z,10.57
2019-05-01T15:56:13.696Z,11.60
2019-05-01T15:58:47.119Z,10.80
2019-05-01T16:01:20.537Z,10.10
2019-05-01T16:03:53.950Z,10.07
2019-05-01T16:06:27.502Z,9.93
2019-05-01T16:09:01.223Z,12.90
2019-05-01T16:11:42.966Z,11.13
2019-05-01T16:14:16.517Z,10.00
2019-05-01T16:16:49.926Z,9.63
2019-05-01T16:19:23.325Z,9.30
2019-05-01T16:21:56.736Z,10.07
2019-05-01T16:24:30.164Z,9.30
2019-05-01T16:27:04.219Z,9.70
2019-05-01T16:29:37.640Z,8.95
2019-05-01T16:32:11.260Z,10.15
2019-05-01T16:34:44.710Z,8.90
2019-05-01T16:37:18.200Z,9.20
2019-05-01T16:39:55.929Z,16.67
2019-05-01T16:42:31.002Z,10.98
2019-05-01T16:45:06.591Z,10.70
2019-05-01T16:47:40.023Z,9.38
2019-05-01T16:50:13.671Z,9.67
2019-05-01T16:52:47.094Z,8.03
2019-05-01T16:55:20.559Z,7.90
2019-05-01T16:57:53.988Z,6.50
2019-05-01T17:00:47.170Z,7.00
2019-05-01T17:03:22.338Z,8.57
2019-05-01T17:05:57.557Z,8.45
2019-05-01T17:08:48.512Z,7.00
2019-05-01T17:11:24.607Z,7.80
2019-05-01T17:13:58.031Z,7.85
2019-05-01T17:16:31.566Z,6.97
2019-05-01T17:19:05.349Z,5.78
2019-05-01T17:21:38.890Z,5.85
2019-05-01T17:24:12.415Z,6.83
2019-05-01T17:26:45.919Z,10.07
2019-05-01T17:29:19.335Z,5.87
2019-05-01T17:31:52.734Z,5.70
2019-05-01T17:34:30.482Z,5.50
2019-05-01T17:37:01.306Z,5.87
2019-05-01T17:39:34.717Z,6.13
2019-05-01T17:42:08.322Z,6.30
2019-05-01T17:44:41.840Z,5.73
2019-05-01T17:47:17.918Z,6.00
2019-05-01T17:49:50.408Z,5.70
2019-05-01T17:52:23.826Z,5.53
2019-05-01T17:54:57.320Z,5.20
2019-05-01T17:57:33.531Z,5.30
2019-05-01T18:00:26.674Z,5.57
2019-05-01T18:03:10.460Z,5.10
2019-05-01T18:05:51.508Z,5.23
2019-05-01T18:08:24.896Z,5.10
2019-05-01T18:10:58.341Z,5.40
2019-05-01T18:13:31.757Z,5.93
2019-05-01T18:16:05.439Z,5.27
2019-05-01T18:18:38.993Z,5.40
2019-05-01T18:21:12.875Z,5.40
2019-05-01T18:24:04.228Z,5.40
2019-05-01T18:26:54.662Z,4.90
2019-05-01T18:29:29.706Z,5.50
2019-05-01T18:32:08.109Z,5.53
2019-05-01T18:34:39.518Z,5.60
2019-05-01T18:37:20.969Z,5.17
2019-05-01T18:39:55.335Z,5.37
2019-05-01T18:42:28.912Z,5.27
2019-05-01T18:45:02.465Z,5.40
2019-05-01T18:47:35.883Z,5.20
2019-05-01T18:50:09.520Z,5.40
2019-05-01T18:52:43.092Z,5.97
2019-05-01T18:55:16.579Z,5.23
2019-05-01T18:57:49.992Z,5.33
2019-05-01T19:00:23.470Z,5.27
2019-05-01T19:02:59.639Z,6.10
2019-05-01T19:05:32.137Z,5.60
2019-05-01T19:08:06.088Z,5.47
2019-05-01T19:10:39.577Z,5.00
2019-05-01T19:13:13.498Z,7.03
2019-05-01T19:15:46.928Z,9.80
2019-05-01T19:18:20.511Z,7.10
2019-05-01T19:20:59.806Z,7.13
2019-05-01T19:23:29.910Z,7.43
2019-05-01T19:26:06.788Z,7.10
2019-05-01T19:28:40.386Z,9.53
2019-05-01T19:31:13.933Z,7.47
2019-05-01T19:33:47.304Z,7.70
2019-05-01T19:36:20.804Z,7.27
2019-05-01T19:38:54.365Z,7.43
2019-05-01T19:41:27.910Z,6.47
2019-05-01T19:44:01.399Z,8.03
2019-05-01T19:46:34.861Z,8.37
2019-05-01T19:49:08.315Z,10.43
2019-05-01T19:51:41.947Z,8.63
2019-05-01T19:54:15.457Z,7.40
2019-05-01T19:56:48.927Z,7.60
2019-05-01T19:59:22.370Z,7.63
2019-05-01T20:01:55.948Z,7.80
2019-05-01T20:04:29.422Z,8.43
2019-05-01T20:07:02.813Z,9.10
2019-05-01T20:09:36.352Z,9.27
2019-05-01T20:12:09.936Z,8.77
2019-05-01T20:14:43.370Z,11.60
2019-05-01T20:17:16.860Z,10.63
2019-05-01T20:19:50.301Z,11.83
2019-05-01T20:22:23.702Z,11.53
2019-05-01T20:24:57.144Z,10.93
2019-05-01T20:27:30.554Z,11.00
2019-05-01T20:30:05.848Z,9.17
2019-05-01T20:32:39.289Z,9.70
2019-05-01T20:35:12.725Z,10.63
2019-05-01T20:37:46.210Z,10.63
2019-05-01T20:40:19.797Z,9.30
2019-05-01T20:42:53.216Z,7.70
2019-05-01T20:45:26.764Z,8.77
2019-05-01T20:48:00.261Z,9.47
2019-05-01T20:50:33.685Z,11.17
2019-05-01T20:53:07.084Z,8.90
2019-05-01T20:55:42.028Z,8.40
2019-05-01T20:58:16.516Z,9.00
2019-05-01T21:00:53.579Z,10.73
2019-05-01T21:03:26.859Z,13.73
2019-05-01T21:06:02.867Z,13.20
2019-05-01T21:08:44.677Z,10.53
2019-05-01T21:11:19.816Z,10.70
2019-05-01T21:13:56.613Z,9.73
2019-05-01T21:16:28.470Z,9.60
2019-05-01T21:19:01.867Z,9.80
2019-05-01T21:21:35.377Z,9.47
2019-05-01T21:24:08.784Z,9.63
2019-05-01T21:26:43.374Z,10.27
2019-05-01T21:29:17.001Z,9.37
2019-05-01T21:31:50.408Z,9.47
2019-05-01T21:34:24.415Z,8.90
2019-05-01T21:36:58.155Z,9.20
2019-05-01T21:39:33.339Z,9.20
2019-05-01T21:42:11.593Z,8.83
2019-05-01T21:44:43.603Z,9.13
2019-05-01T21:47:17.322Z,10.00
2019-05-01T21:49:50.704Z,9.30
2019-05-01T21:52:26.795Z,10.17
2019-05-01T21:54:59.237Z,9.57
2019-05-01T21:57:37.312Z,9.37
2019-05-01T22:00:08.841Z,9.20
2019-05-01T22:02:46.441Z,8.63
2019-05-01T22:05:17.462Z,9.40
2019-05-01T22:07:50.957Z,8.73
2019-05-01T22:10:26.739Z,9.27
2019-05-01T22:12:59.833Z,8.80
2019-05-01T22:15:42.001Z,9.73
2019-05-01T22:18:17.368Z,8.40
2019-05-01T22:20:58.388Z,9.07
2019-05-01T22:23:33.433Z,9.03
2019-05-01T22:26:06.836Z,8.70
2019-05-01T22:28:44.572Z,8.83
2019-05-01T22:31:25.225Z,8.60
2019-05-01T22:34:06.425Z,8.43
2019-05-01T22:36:39.835Z,8.97
2019-05-01T22:39:13.479Z,8.70
2019-05-01T22:41:46.878Z,7.77
2019-05-01T22:44:20.381Z,9.47
2019-05-01T22:46:53.922Z,8.53
2019-05-01T22:49:27.340Z,8.13
2019-05-01T22:52:00.724Z,7.40
2019-05-01T22:54:34.149Z,7.93
2019-05-01T22:57:07.548Z,8.10
2019-05-01T22:59:40.973Z,6.67
2019-05-01T23:02:16.017Z,8.20
2019-05-01T23:04:52.126Z,7.87
2019-05-01T23:07:24.637Z,8.20
2019-05-01T23:09:59.387Z,7.63
2019-05-01T23:12:33.185Z,8.30
2019-05-01T23:15:10.199Z,8.63
2019-05-01T23:17:45.224Z,7.87
2019-05-01T23:20:18.766Z,9.27
2019-05-01T23:22:52.176Z,8.83
2019-05-01T23:25:25.667Z,8.83
2019-05-01T23:27:59.655Z,9.00
2019-05-01T23:30:34.366Z,8.73
2019-05-01T23:33:07.753Z,9.13
2019-05-01T23:35:41.178Z,8.53
2019-05-01T23:38:14.570Z,8.63
2019-05-01T23:40:50.958Z,8.65
2019-05-01T23:43:27.699Z,8.77
2019-05-01T23:45:58.268Z,9.53
2019-05-01T23:48:31.639Z,9.63
2019-05-01T23:51:05.137Z,9.33
2019-05-01T23:53:38.537Z,8.47
2019-05-01T23:56:12.028Z,9.37
2019-05-01T23:58:45.412Z,8.57
